sensor_id;sensor_type;location;lat;lon;timestamp;P1;durP1;ratioP1;P2;durP2;ratioP2
34832;SDS011;55941;50.800;4.342;2022-09-29T00:00:10;10.13;;;5.00;;
34832;SDS011;55941;50.800;4.342;2022-09-29T00:02:38;9.07;;;4.75;;
34832;SDS011;55941;50.800;4.342;2022-09-29T00:05:04;7.35;;;4.78;;
34832;SDS011;55941;50.800;4.342;2022-09-29T00:07:30;9.73;;;4.80;;
34832;SDS011;55941;50.800;4.342;2022-09-29T00:09:57;9.02;;;5.18;;
34832;SDS011;55941;50.800;4.342;2022-09-29T00:12:23;10.10;;;4.78;;
34832;SDS011;55941;50.800;4.342;2022-09-29T00:14:49;10.00;;;5.47;;
34832;SDS011;55941;50.800;4.342;2022-09-29T00:17:15;10.45;;;4.55;;
34832;SDS011;55941;50.800;4.342;2022-09-29T00:19:41;11.55;;;5.63;;
34832;SDS011;55941;50.800;4.342;2022-09-29T00:22:06;8.75;;;5.43;;
34832;SDS011;55941;50.800;4.342;2022-09-29T00:24:32;9.30;;;4.80;;
34832;SDS011;55941;50.800;4.342;2022-09-29T00:26:59;14.88;;;5.60;;
34832;SDS011;55941;50.800;4.342;2022-09-29T00:29:25;11.85;;;5.75;;
34832;SDS011;55941;50.800;4.342;2022-09-29T00:31:51;9.63;;;5.43;;
34832;SDS011;55941;50.800;4.342;2022-09-29T00:34:17;10.48;;;5.00;;
34832;SDS011;55941;50.800;4.342;2022-09-29T00:36:43;11.48;;;4.93;;
34832;SDS011;55941;50.800;4.342;2022-09-29T00:39:09;10.00;;;5.53;;
34832;SDS011;55941;50.800;4.342;2022-09-29T00:41:35;10.60;;;5.28;;
34832;SDS011;55941;50.800;4.342;2022-09-29T00:54:28;9.95;;;5.45;;
34832;SDS011;55941;50.800;4.342;2022-09-29T00:57:01;8.63;;;5.07;;
34832;SDS011;55941;50.800;4.342;2022-09-29T00:59:31;9.52;;;4.75;;
34832;SDS011;55941;50.800;4.342;2022-09-29T01:02:15;15.50;;;5.15;;
34832;SDS011;55941;50.800;4.342;2022-09-29T01:04:45;11.93;;;4.50;;
34832;SDS011;55941;50.800;4.342;2022-09-29T01:07:16;12.90;;;4.75;;
34832;SDS011;55941;50.800;4.342;2022-09-29T01:09:42;10.73;;;4.63;;
34832;SDS011;55941;50.800;4.342;2022-09-29T01:12:08;9.15;;;5.13;;
34832;SDS011;55941;50.800;4.342;2022-09-29T01:14:35;9.23;;;5.15;;
34832;SDS011;55941;50.800;4.342;2022-09-29T01:17:03;13.25;;;5.43;;
34832;SDS011;55941;50.800;4.342;2022-09-29T01:19:37;10.43;;;5.15;;
34832;SDS011;55941;50.800;4.342;2022-09-29T01:22:25;7.70;;;4.90;;
34832;SDS011;55941;50.800;4.342;2022-09-29T01:25:27;10.33;;;4.80;;
34832;SDS011;55941;50.800;4.342;2022-09-29T01:33:23;15.00;;;5.10;;
34832;SDS011;55941;50.800;4.342;2022-09-29T01:36:11;9.40;;;4.65;;
34832;SDS011;55941;50.800;4.342;2022-09-29T01:38:49;8.25;;;5.05;;
34832;SDS011;55941;50.800;4.342;2022-09-29T01:41:37;12.70;;;5.30;;
34832;SDS011;55941;50.800;4.342;2022-09-29T01:44:21;11.23;;;5.22;;
34832;SDS011;55941;50.800;4.342;2022-09-29T01:46:57;12.13;;;5.15;;
34832;SDS011;55941;50.800;4.342;2022-09-29T01:49:30;10.35;;;5.22;;
34832;SDS011;55941;50.800;4.342;2022-09-29T01:52:10;11.82;;;5.45;;
34832;SDS011;55941;50.800;4.342;2022-09-29T02:02:12;9.53;;;5.10;;
34832;SDS011;55941;50.800;4.342;2022-09-29T02:04:46;15.05;;;5.82;;
34832;SDS011;55941;50.800;4.342;2022-09-29T02:07:19;13.68;;;5.25;;
34832;SDS011;55941;50.800;4.342;2022-09-29T02:09:52;12.80;;;5.93;;
34832;SDS011;55941;50.800;4.342;2022-09-29T02:12:27;18.00;;;5.47;;
34832;SDS011;55941;50.800;4.342;2022-09-29T02:14:56;11.43;;;5.40;;
34832;SDS011;55941;50.800;4.342;2022-09-29T02:17:28;21.35;;;5.97;;
34832;SDS011;55941;50.800;4.342;2022-09-29T02:20:01;15.52;;;5.55;;
34832;SDS011;55941;50.800;4.342;2022-09-29T02:22:28;13.90;;;5.50;;
34832;SDS011;55941;50.800;4.342;2022-09-29T02:24:54;12.13;;;5.05;;
34832;SDS011;55941;50.800;4.342;2022-09-29T02:27:23;13.57;;;5.72;;
34832;SDS011;55941;50.800;4.342;2022-09-29T02:29:51;13.45;;;6.47;;
34832;SDS011;55941;50.800;4.342;2022-09-29T02:32:17;12.85;;;6.05;;
34832;SDS011;55941;50.800;4.342;2022-09-29T02:34:46;10.60;;;5.13;;
34832;SDS011;55941;50.800;4.342;2022-09-29T02:40:26;15.13;;;5.80;;
34832;SDS011;55941;50.800;4.342;2022-09-29T02:43:06;17.85;;;5.03;;
34832;SDS011;55941;50.800;4.342;2022-09-29T02:51:25;13.20;;;5.65;;
34832;SDS011;55941;50.800;4.342;2022-09-29T02:54:06;14.82;;;5.13;;
34832;SDS011;55941;50.800;4.342;2022-09-29T02:59:54;14.85;;;5.70;;
34832;SDS011;55941;50.800;4.342;2022-09-29T03:02:25;13.13;;;5.30;;
34832;SDS011;55941;50.800;4.342;2022-09-29T03:04:51;11.13;;;5.18;;
34832;SDS011;55941;50.800;4.342;2022-09-29T03:07:18;14.13;;;5.65;;
34832;SDS011;55941;50.800;4.342;2022-09-29T03:09:45;13.48;;;5.63;;
34832;SDS011;55941;50.800;4.342;2022-09-29T03:12:11;21.27;;;6.28;;
34832;SDS011;55941;50.800;4.342;2022-09-29T03:14:37;12.05;;;5.22;;
34832;SDS011;55941;50.800;4.342;2022-09-29T03:17:02;13.75;;;5.05;;
34832;SDS011;55941;50.800;4.342;2022-09-29T03:19:28;10.82;;;5.95;;
34832;SDS011;55941;50.800;4.342;2022-09-29T03:21:54;9.38;;;5.28;;
34832;SDS011;55941;50.800;4.342;2022-09-29T03:24:20;11.20;;;5.22;;
34832;SDS011;55941;50.800;4.342;2022-09-29T03:26:46;12.18;;;5.55;;
34832;SDS011;55941;50.800;4.342;2022-09-29T03:29:12;17.63;;;5.60;;
34832;SDS011;55941;50.800;4.342;2022-09-29T03:31:38;15.18;;;5.28;;
34832;SDS011;55941;50.800;4.342;2022-09-29T03:34:05;9.55;;;5.22;;
34832;SDS011;55941;50.800;4.342;2022-09-29T03:36:31;14.75;;;5.97;;
34832;SDS011;55941;50.800;4.342;2022-09-29T03:38:57;12.65;;;5.63;;
34832;SDS011;55941;50.800;4.342;2022-09-29T03:41:23;11.43;;;5.57;;
34832;SDS011;55941;50.800;4.342;2022-09-29T03:43:48;10.27;;;5.60;;
34832;SDS011;55941;50.800;4.342;2022-09-29T03:46:15;18.17;;;5.60;;
34832;SDS011;55941;50.800;4.342;2022-09-29T03:48:42;12.65;;;5.35;;
34832;SDS011;55941;50.800;4.342;2022-09-29T03:51:08;14.57;;;5.35;;
34832;SDS011;55941;50.800;4.342;2022-09-29T03:53:34;14.55;;;4.72;;
34832;SDS011;55941;50.800;4.342;2022-09-29T03:56:00;16.60;;;5.57;;
34832;SDS011;55941;50.800;4.342;2022-09-29T03:58:27;14.68;;;5.72;;
34832;SDS011;55941;50.800;4.342;2022-09-29T04:00:53;16.88;;;5.05;;
34832;SDS011;55941;50.800;4.342;2022-09-29T04:03:19;11.50;;;5.10;;
34832;SDS011;55941;50.800;4.342;2022-09-29T04:05:45;9.50;;;5.00;;
34832;SDS011;55941;50.800;4.342;2022-09-29T04:08:14;13.98;;;5.20;;
34832;SDS011;55941;50.800;4.342;2022-09-29T04:10:40;15.77;;;5.50;;
34832;SDS011;55941;50.800;4.342;2022-09-29T04:13:07;10.18;;;5.18;;
34832;SDS011;55941;50.800;4.342;2022-09-29T04:15:33;12.18;;;5.10;;
34832;SDS011;55941;50.800;4.342;2022-09-29T04:17:59;13.82;;;5.60;;
34832;SDS011;55941;50.800;4.342;2022-09-29T04:20:25;13.85;;;5.93;;
34832;SDS011;55941;50.800;4.342;2022-09-29T04:22:51;16.45;;;6.07;;
34832;SDS011;55941;50.800;4.342;2022-09-29T04:25:17;10.50;;;4.93;;
34832;SDS011;55941;50.800;4.342;2022-09-29T04:27:43;15.48;;;5.63;;
34832;SDS011;55941;50.800;4.342;2022-09-29T04:30:09;13.85;;;5.35;;
34832;SDS011;55941;50.800;4.342;2022-09-29T04:32:35;9.43;;;5.03;;
34832;SDS011;55941;50.800;4.342;2022-09-29T04:35:01;14.85;;;6.00;;
34832;SDS011;55941;50.800;4.342;2022-09-29T04:37:27;16.20;;;5.50;;
34832;SDS011;55941;50.800;4.342;2022-09-29T04:39:53;14.95;;;5.28;;
34832;SDS011;55941;50.800;4.342;2022-09-29T04:42:19;14.85;;;5.18;;
34832;SDS011;55941;50.800;4.342;2022-09-29T04:44:47;17.85;;;5.30;;
34832;SDS011;55941;50.800;4.342;2022-09-29T04:47:14;12.95;;;5.60;;
34832;SDS011;55941;50.800;4.342;2022-09-29T04:49:41;15.82;;;6.15;;
34832;SDS011;55941;50.800;4.342;2022-09-29T04:52:10;15.80;;;6.00;;
34832;SDS011;55941;50.800;4.342;2022-09-29T04:54:36;17.75;;;4.93;;
34832;SDS011;55941;50.800;4.342;2022-09-29T04:57:02;21.30;;;6.10;;
34832;SDS011;55941;50.800;4.342;2022-09-29T04:59:29;16.60;;;5.97;;
34832;SDS011;55941;50.800;4.342;2022-09-29T05:01:54;13.30;;;5.20;;
34832;SDS011;55941;50.800;4.342;2022-09-29T05:04:20;18.45;;;5.72;;
34832;SDS011;55941;50.800;4.342;2022-09-29T05:06:46;20.65;;;5.82;;
34832;SDS011;55941;50.800;4.342;2022-09-29T05:09:12;21.73;;;6.47;;
34832;SDS011;55941;50.800;4.342;2022-09-29T05:11:38;15.05;;;5.63;;
34832;SDS011;55941;50.800;4.342;2022-09-29T05:14:04;13.75;;;5.93;;
34832;SDS011;55941;50.800;4.342;2022-09-29T05:16:30;19.30;;;5.70;;
34832;SDS011;55941;50.800;4.342;2022-09-29T05:18:57;9.85;;;5.60;;
34832;SDS011;55941;50.800;4.342;2022-09-29T05:21:23;14.90;;;5.50;;
34832;SDS011;55941;50.800;4.342;2022-09-29T05:23:49;16.30;;;6.43;;
34832;SDS011;55941;50.800;4.342;2022-09-29T05:26:15;11.23;;;5.60;;
34832;SDS011;55941;50.800;4.342;2022-09-29T05:28:45;15.85;;;5.25;;
34832;SDS011;55941;50.800;4.342;2022-09-29T05:31:11;12.70;;;5.82;;
34832;SDS011;55941;50.800;4.342;2022-09-29T05:33:38;12.35;;;6.03;;
34832;SDS011;55941;50.800;4.342;2022-09-29T05:36:05;18.70;;;6.55;;
34832;SDS011;55941;50.800;4.342;2022-09-29T05:38:32;13.40;;;6.18;;
34832;SDS011;55941;50.800;4.342;2022-09-29T05:41:02;13.25;;;5.57;;
34832;SDS011;55941;50.800;4.342;2022-09-29T05:43:29;13.18;;;5.85;;
34832;SDS011;55941;50.800;4.342;2022-09-29T05:46:01;29.05;;;6.97;;
34832;SDS011;55941;50.800;4.342;2022-09-29T05:48:28;19.08;;;5.90;;
34832;SDS011;55941;50.800;4.342;2022-09-29T05:50:55;16.05;;;6.07;;
34832;SDS011;55941;50.800;4.342;2022-09-29T05:53:21;13.88;;;5.60;;
34832;SDS011;55941;50.800;4.342;2022-09-29T05:55:47;15.88;;;6.20;;
34832;SDS011;55941;50.800;4.342;2022-09-29T05:58:13;9.30;;;6.03;;
34832;SDS011;55941;50.800;4.342;2022-09-29T06:00:39;24.77;;;6.35;;
34832;SDS011;55941;50.800;4.342;2022-09-29T06:03:05;14.90;;;6.22;;
34832;SDS011;55941;50.800;4.342;2022-09-29T06:05:32;15.52;;;6.70;;
34832;SDS011;55941;50.800;4.342;2022-09-29T06:08:02;14.98;;;6.60;;
34832;SDS011;55941;50.800;4.342;2022-09-29T06:10:28;12.00;;;7.10;;
34832;SDS011;55941;50.800;4.342;2022-09-29T06:12:53;21.00;;;6.65;;
34832;SDS011;55941;50.800;4.342;2022-09-29T06:15:21;17.77;;;6.47;;
34832;SDS011;55941;50.800;4.342;2022-09-29T06:17:53;16.10;;;6.75;;
34832;SDS011;55941;50.800;4.342;2022-09-29T06:20:20;15.70;;;6.80;;
34832;SDS011;55941;50.800;4.342;2022-09-29T06:22:45;14.18;;;6.45;;
34832;SDS011;55941;50.800;4.342;2022-09-29T06:25:11;16.95;;;6.60;;
34832;SDS011;55941;50.800;4.342;2022-09-29T06:27:37;16.55;;;7.82;;
34832;SDS011;55941;50.800;4.342;2022-09-29T06:30:03;26.65;;;8.57;;
34832;SDS011;55941;50.800;4.342;2022-09-29T06:32:29;21.83;;;8.60;;
34832;SDS011;55941;50.800;4.342;2022-09-29T06:34:55;16.00;;;7.75;;
34832;SDS011;55941;50.800;4.342;2022-09-29T06:37:39;15.70;;;6.63;;
34832;SDS011;55941;50.800;4.342;2022-09-29T06:40:09;13.43;;;6.50;;
34832;SDS011;55941;50.800;4.342;2022-09-29T06:42:35;19.40;;;6.68;;
34832;SDS011;55941;50.800;4.342;2022-09-29T06:45:02;25.77;;;7.75;;
34832;SDS011;55941;50.800;4.342;2022-09-29T06:47:27;18.35;;;7.13;;
34832;SDS011;55941;50.800;4.342;2022-09-29T06:49:53;22.92;;;7.22;;
34832;SDS011;55941;50.800;4.342;2022-09-29T06:52:19;17.17;;;6.95;;
34832;SDS011;55941;50.800;4.342;2022-09-29T06:54:45;20.27;;;6.25;;
34832;SDS011;55941;50.800;4.342;2022-09-29T06:57:11;14.98;;;7.10;;
34832;SDS011;55941;50.800;4.342;2022-09-29T06:59:37;19.38;;;6.88;;
34832;SDS011;55941;50.800;4.342;2022-09-29T07:02:04;18.73;;;7.18;;
34832;SDS011;55941;50.800;4.342;2022-09-29T07:04:30;11.73;;;6.53;;
34832;SDS011;55941;50.800;4.342;2022-09-29T07:06:55;21.00;;;6.30;;
34832;SDS011;55941;50.800;4.342;2022-09-29T07:09:21;19.02;;;6.55;;
34832;SDS011;55941;50.800;4.342;2022-09-29T07:11:48;13.60;;;6.60;;
34832;SDS011;55941;50.800;4.342;2022-09-29T07:14:15;11.60;;;6.18;;
34832;SDS011;55941;50.800;4.342;2022-09-29T07:16:42;14.82;;;6.47;;
34832;SDS011;55941;50.800;4.342;2022-09-29T07:19:10;19.02;;;7.15;;
34832;SDS011;55941;50.800;4.342;2022-09-29T07:21:36;16.98;;;6.78;;
34832;SDS011;55941;50.800;4.342;2022-09-29T07:24:01;19.95;;;7.43;;
34832;SDS011;55941;50.800;4.342;2022-09-29T07:26:27;18.10;;;6.95;;
34832;SDS011;55941;50.800;4.342;2022-09-29T07:28:53;19.75;;;7.45;;
34832;SDS011;55941;50.800;4.342;2022-09-29T07:31:19;13.73;;;7.18;;
34832;SDS011;55941;50.800;4.342;2022-09-29T07:33:46;17.75;;;6.95;;
34832;SDS011;55941;50.800;4.342;2022-09-29T07:36:13;23.73;;;7.60;;
34832;SDS011;55941;50.800;4.342;2022-09-29T07:38:41;16.20;;;6.57;;
34832;SDS011;55941;50.800;4.342;2022-09-29T07:41:09;19.65;;;7.45;;
34832;SDS011;55941;50.800;4.342;2022-09-29T07:43:35;14.77;;;7.05;;
34832;SDS011;55941;50.800;4.342;2022-09-29T07:46:02;17.90;;;6.93;;
34832;SDS011;55941;50.800;4.342;2022-09-29T07:48:28;13.15;;;7.43;;
34832;SDS011;55941;50.800;4.342;2022-09-29T07:50:59;21.05;;;7.90;;
34832;SDS011;55941;50.800;4.342;2022-09-29T07:53:32;25.02;;;7.80;;
34832;SDS011;55941;50.800;4.342;2022-09-29T07:56:06;21.85;;;8.18;;
34832;SDS011;55941;50.800;4.342;2022-09-29T07:58:33;23.60;;;7.90;;
34832;SDS011;55941;50.800;4.342;2022-09-29T08:01:04;13.40;;;7.15;;
34832;SDS011;55941;50.800;4.342;2022-09-29T08:03:34;23.50;;;7.37;;
34832;SDS011;55941;50.800;4.342;2022-09-29T08:06:11;16.83;;;7.88;;
34832;SDS011;55941;50.800;4.342;2022-09-29T08:08:39;20.25;;;8.18;;
34832;SDS011;55941;50.800;4.342;2022-09-29T08:11:07;20.77;;;7.40;;
34832;SDS011;55941;50.800;4.342;2022-09-29T08:13:35;20.45;;;8.20;;
34832;SDS011;55941;50.800;4.342;2022-09-29T08:16:02;13.80;;;7.30;;
34832;SDS011;55941;50.800;4.342;2022-09-29T08:18:30;23.67;;;8.50;;
34832;SDS011;55941;50.800;4.342;2022-09-29T08:20:57;12.63;;;7.07;;
34832;SDS011;55941;50.800;4.342;2022-09-29T08:23:23;20.42;;;7.82;;
34832;SDS011;55941;50.800;4.342;2022-09-29T08:25:49;16.75;;;7.30;;
34832;SDS011;55941;50.800;4.342;2022-09-29T08:28:27;18.08;;;7.45;;
34832;SDS011;55941;50.800;4.342;2022-09-29T08:31:00;21.30;;;8.27;;
34832;SDS011;55941;50.800;4.342;2022-09-29T08:33:30;18.92;;;7.18;;
34832;SDS011;55941;50.800;4.342;2022-09-29T08:35:57;21.95;;;7.90;;
34832;SDS011;55941;50.800;4.342;2022-09-29T08:38:24;18.13;;;7.63;;
34832;SDS011;55941;50.800;4.342;2022-09-29T08:40:50;18.80;;;7.97;;
34832;SDS011;55941;50.800;4.342;2022-09-29T08:43:21;18.35;;;7.70;;
34832;SDS011;55941;50.800;4.342;2022-09-29T08:45:57;20.67;;;7.13;;
34832;SDS011;55941;50.800;4.342;2022-09-29T08:48:35;21.80;;;7.57;;
34832;SDS011;55941;50.800;4.342;2022-09-29T08:51:11;17.00;;;7.20;;
34832;SDS011;55941;50.800;4.342;2022-09-29T08:53:49;19.60;;;6.97;;
34832;SDS011;55941;50.800;4.342;2022-09-29T08:56:17;24.92;;;7.05;;
34832;SDS011;55941;50.800;4.342;2022-09-29T08:58:43;17.20;;;6.25;;
34832;SDS011;55941;50.800;4.342;2022-09-29T09:11:59;14.85;;;4.97;;
34832;SDS011;55941;50.800;4.342;2022-09-29T09:14:32;12.45;;;5.40;;
34832;SDS011;55941;50.800;4.342;2022-09-29T09:30:35;7.72;;;3.30;;
34832;SDS011;55941;50.800;4.342;2022-09-29T09:33:06;5.00;;;3.00;;
34832;SDS011;55941;50.800;4.342;2022-09-29T09:35:51;12.30;;;3.28;;
34832;SDS011;55941;50.800;4.342;2022-09-29T09:38:21;8.07;;;3.90;;
34832;SDS011;55941;50.800;4.342;2022-09-29T09:40:53;9.27;;;2.92;;
34832;SDS011;55941;50.800;4.342;2022-09-29T09:43:33;9.00;;;3.75;;
34832;SDS011;55941;50.800;4.342;2022-09-29T09:48:43;6.65;;;3.40;;
34832;SDS011;55941;50.800;4.342;2022-09-29T09:54:24;6.47;;;3.42;;
34832;SDS011;55941;50.800;4.342;2022-09-29T10:02:49;7.80;;;2.80;;
34832;SDS011;55941;50.800;4.342;2022-09-29T10:05:18;8.55;;;3.10;;
34832;SDS011;55941;50.800;4.342;2022-09-29T10:07:46;5.68;;;3.08;;
34832;SDS011;55941;50.800;4.342;2022-09-29T10:10:14;7.18;;;3.22;;
34832;SDS011;55941;50.800;4.342;2022-09-29T10:12:47;8.05;;;3.33;;
34832;SDS011;55941;50.800;4.342;2022-09-29T10:15:21;11.02;;;3.30;;
34832;SDS011;55941;50.800;4.342;2022-09-29T10:18:04;7.43;;;3.00;;
34832;SDS011;55941;50.800;4.342;2022-09-29T10:20:36;6.53;;;2.88;;
34832;SDS011;55941;50.800;4.342;2022-09-29T10:23:19;6.03;;;2.20;;
34832;SDS011;55941;50.800;4.342;2022-09-29T10:25:54;10.88;;;2.67;;
34832;SDS011;55941;50.800;4.342;2022-09-29T10:28:27;4.95;;;2.40;;
34832;SDS011;55941;50.800;4.342;2022-09-29T10:31:00;5.90;;;1.88;;
34832;SDS011;55941;50.800;4.342;2022-09-29T10:33:26;7.00;;;1.80;;
34832;SDS011;55941;50.800;4.342;2022-09-29T10:36:02;4.70;;;2.03;;
34832;SDS011;55941;50.800;4.342;2022-09-29T10:38:31;5.28;;;2.00;;
34832;SDS011;55941;50.800;4.342;2022-09-29T10:40:59;3.28;;;1.52;;
34832;SDS011;55941;50.800;4.342;2022-09-29T10:46:01;7.97;;;1.85;;
34832;SDS011;55941;50.800;4.342;2022-09-29T10:48:26;10.02;;;1.83;;
34832;SDS011;55941;50.800;4.342;2022-09-29T10:50:53;10.30;;;2.00;;
34832;SDS011;55941;50.800;4.342;2022-09-29T10:53:35;2.60;;;2.00;;
34832;SDS011;55941;50.800;4.342;2022-09-29T10:56:21;6.45;;;2.10;;
34832;SDS011;55941;50.800;4.342;2022-09-29T10:58:53;6.10;;;2.10;;
34832;SDS011;55941;50.800;4.342;2022-09-29T11:03:48;5.13;;;2.25;;
34832;SDS011;55941;50.800;4.342;2022-09-29T11:06:26;9.43;;;2.22;;
34832;SDS011;55941;50.800;4.342;2022-09-29T11:11:57;4.68;;;2.05;;
34832;SDS011;55941;50.800;4.342;2022-09-29T11:14:31;4.85;;;1.83;;
34832;SDS011;55941;50.800;4.342;2022-09-29T11:19:45;3.80;;;1.48;;
34832;SDS011;55941;50.800;4.342;2022-09-29T11:33:01;3.65;;;1.58;;
34832;SDS011;55941;50.800;4.342;2022-09-29T11:43:53;5.30;;;1.70;;
34832;SDS011;55941;50.800;4.342;2022-09-29T11:46:33;6.68;;;1.55;;
34832;SDS011;55941;50.800;4.342;2022-09-29T11:52:23;3.33;;;1.30;;
34832;SDS011;55941;50.800;4.342;2022-09-29T11:58:07;2.53;;;1.33;;
34832;SDS011;55941;50.800;4.342;2022-09-29T12:00:46;1.35;;;1.20;;
34832;SDS011;55941;50.800;4.342;2022-09-29T12:03:36;6.43;;;1.08;;
34832;SDS011;55941;50.800;4.342;2022-09-29T12:12:25;5.57;;;1.40;;
34832;SDS011;55941;50.800;4.342;2022-09-29T12:18:17;3.30;;;1.20;;
34832;SDS011;55941;50.800;4.342;2022-09-29T12:21:01;4.40;;;1.70;;
34832;SDS011;55941;50.800;4.342;2022-09-29T12:23:28;2.78;;;1.10;;
34832;SDS011;55941;50.800;4.342;2022-09-29T12:25:59;5.10;;;1.33;;
34832;SDS011;55941;50.800;4.342;2022-09-29T12:28:33;5.00;;;1.92;;
34832;SDS011;55941;50.800;4.342;2022-09-29T12:31:10;5.18;;;1.20;;
34832;SDS011;55941;50.800;4.342;2022-09-29T12:33:42;9.50;;;1.38;;
34832;SDS011;55941;50.800;4.342;2022-09-29T12:41:54;2.53;;;0.80;;
34832;SDS011;55941;50.800;4.342;2022-09-29T12:44:39;4.53;;;1.00;;
34832;SDS011;55941;50.800;4.342;2022-09-29T12:47:22;6.07;;;1.40;;
34832;SDS011;55941;50.800;4.342;2022-09-29T12:52:54;3.30;;;0.93;;
34832;SDS011;55941;50.800;4.342;2022-09-29T12:55:45;1.02;;;0.63;;
34832;SDS011;55941;50.800;4.342;2022-09-29T13:28:52;2.25;;;0.70;;
34832;SDS011;55941;50.800;4.342;2022-09-29T13:31:23;2.33;;;0.97;;
34832;SDS011;55941;50.800;4.342;2022-09-29T13:33:53;3.55;;;0.65;;
34832;SDS011;55941;50.800;4.342;2022-09-29T13:36:28;1.20;;;0.60;;
34832;SDS011;55941;50.800;4.342;2022-09-29T13:38:59;3.33;;;0.80;;
34832;SDS011;55941;50.800;4.342;2022-09-29T13:46:24;1.75;;;0.60;;
34832;SDS011;55941;50.800;4.342;2022-09-29T13:49:11;4.25;;;1.20;;
34832;SDS011;55941;50.800;4.342;2022-09-29T13:51:47;2.45;;;0.70;;
34832;SDS011;55941;50.800;4.342;2022-09-29T13:57:00;1.98;;;0.70;;
34832;SDS011;55941;50.800;4.342;2022-09-29T14:02:18;4.30;;;0.60;;
34832;SDS011;55941;50.800;4.342;2022-09-29T14:05:03;6.03;;;0.90;;
34832;SDS011;55941;50.800;4.342;2022-09-29T14:07:36;2.30;;;0.88;;
34832;SDS011;55941;50.800;4.342;2022-09-29T14:15:42;2.00;;;0.65;;
34832;SDS011;55941;50.800;4.342;2022-09-29T14:21:04;3.00;;;0.60;;
34832;SDS011;55941;50.800;4.342;2022-09-29T14:29:27;4.30;;;0.73;;
34832;SDS011;55941;50.800;4.342;2022-09-29T14:31:57;1.88;;;0.80;;
34832;SDS011;55941;50.800;4.342;2022-09-29T14:34:26;2.42;;;0.93;;
34832;SDS011;55941;50.800;4.342;2022-09-29T14:36:56;1.90;;;0.90;;
34832;SDS011;55941;50.800;4.342;2022-09-29T14:39:24;1.88;;;0.80;;
34832;SDS011;55941;50.800;4.342;2022-09-29T14:41:51;4.75;;;1.10;;
34832;SDS011;55941;50.800;4.342;2022-09-29T14:46:57;3.88;;;1.23;;
34832;SDS011;55941;50.800;4.342;2022-09-29T14:56:00;3.42;;;1.20;;
34832;SDS011;55941;50.800;4.342;2022-09-29T14:58:42;3.83;;;1.15;;
34832;SDS011;55941;50.800;4.342;2022-09-29T15:01:35;2.63;;;1.00;;
34832;SDS011;55941;50.800;4.342;2022-09-29T15:04:22;3.83;;;1.25;;
34832;SDS011;55941;50.800;4.342;2022-09-29T15:06:51;1.67;;;0.85;;
34832;SDS011;55941;50.800;4.342;2022-09-29T15:09:18;7.13;;;1.20;;
34832;SDS011;55941;50.800;4.342;2022-09-29T15:11:56;4.70;;;1.30;;
34832;SDS011;55941;50.800;4.342;2022-09-29T15:14:27;3.25;;;1.30;;
34832;SDS011;55941;50.800;4.342;2022-09-29T15:28:11;2.70;;;1.02;;
34832;SDS011;55941;50.800;4.342;2022-09-29T15:30:50;3.38;;;1.13;;
34832;SDS011;55941;50.800;4.342;2022-09-29T15:33:23;4.93;;;1.10;;
34832;SDS011;55941;50.800;4.342;2022-09-29T15:36:04;6.50;;;1.38;;
34832;SDS011;55941;50.800;4.342;2022-09-29T15:38:33;3.78;;;1.10;;
34832;SDS011;55941;50.800;4.342;2022-09-29T15:46:46;4.93;;;1.40;;
34832;SDS011;55941;50.800;4.342;2022-09-29T15:49:14;5.57;;;1.52;;
34832;SDS011;55941;50.800;4.342;2022-09-29T15:51:43;3.65;;;1.80;;
34832;SDS011;55941;50.800;4.342;2022-09-29T15:54:22;5.60;;;1.50;;
34832;SDS011;55941;50.800;4.342;2022-09-29T15:57:00;7.22;;;1.38;;
34832;SDS011;55941;50.800;4.342;2022-09-29T15:59:46;4.60;;;1.70;;
34832;SDS011;55941;50.800;4.342;2022-09-29T16:02:28;5.93;;;1.40;;
34832;SDS011;55941;50.800;4.342;2022-09-29T16:05:18;5.93;;;1.35;;
34832;SDS011;55941;50.800;4.342;2022-09-29T16:07:48;4.80;;;1.80;;
34832;SDS011;55941;50.800;4.342;2022-09-29T16:10:41;5.03;;;1.65;;
34832;SDS011;55941;50.800;4.342;2022-09-29T16:13:17;5.50;;;1.92;;
34832;SDS011;55941;50.800;4.342;2022-09-29T16:18:19;4.30;;;1.75;;
34832;SDS011;55941;50.800;4.342;2022-09-29T16:20:50;5.18;;;1.80;;
34832;SDS011;55941;50.800;4.342;2022-09-29T16:23:24;5.22;;;1.48;;
34832;SDS011;55941;50.800;4.342;2022-09-29T16:28:36;6.75;;;2.30;;
34832;SDS011;55941;50.800;4.342;2022-09-29T16:31:22;9.57;;;2.97;;
34832;SDS011;55941;50.800;4.342;2022-09-29T16:33:53;6.32;;;2.70;;
34832;SDS011;55941;50.800;4.342;2022-09-29T16:38:51;11.13;;;4.10;;
34832;SDS011;55941;50.800;4.342;2022-09-29T16:41:26;11.68;;;3.33;;
34832;SDS011;55941;50.800;4.342;2022-09-29T16:44:05;22.45;;;10.65;;
34832;SDS011;55941;50.800;4.342;2022-09-29T16:49:52;8.80;;;4.55;;
34832;SDS011;55941;50.800;4.342;2022-09-29T16:55:05;12.55;;;4.68;;
34832;SDS011;55941;50.800;4.342;2022-09-29T16:57:56;13.57;;;4.40;;
34832;SDS011;55941;50.800;4.342;2022-09-29T17:00:32;9.52;;;4.00;;
34832;SDS011;55941;50.800;4.342;2022-09-29T17:03:00;8.57;;;3.40;;
34832;SDS011;55941;50.800;4.342;2022-09-29T17:05:30;12.20;;;3.88;;
34832;SDS011;55941;50.800;4.342;2022-09-29T17:08:10;7.82;;;3.85;;
34832;SDS011;55941;50.800;4.342;2022-09-29T17:10:42;5.85;;;2.30;;
34832;SDS011;55941;50.800;4.342;2022-09-29T17:13:09;7.28;;;2.50;;
34832;SDS011;55941;50.800;4.342;2022-09-29T17:15:40;6.95;;;3.10;;
34832;SDS011;55941;50.800;4.342;2022-09-29T17:18:11;10.77;;;3.47;;
34832;SDS011;55941;50.800;4.342;2022-09-29T17:20:37;10.07;;;4.00;;
34832;SDS011;55941;50.800;4.342;2022-09-29T17:23:04;10.35;;;5.15;;
34832;SDS011;55941;50.800;4.342;2022-09-29T17:25:31;8.13;;;4.00;;
34832;SDS011;55941;50.800;4.342;2022-09-29T17:27:58;10.82;;;3.75;;
34832;SDS011;55941;50.800;4.342;2022-09-29T17:30:36;7.70;;;3.40;;
34832;SDS011;55941;50.800;4.342;2022-09-29T17:33:13;9.32;;;4.30;;
34832;SDS011;55941;50.800;4.342;2022-09-29T17:35:41;12.70;;;3.80;;
34832;SDS011;55941;50.800;4.342;2022-09-29T17:38:12;10.20;;;3.58;;
34832;SDS011;55941;50.800;4.342;2022-09-29T17:43:07;15.68;;;4.63;;
34832;SDS011;55941;50.800;4.342;2022-09-29T17:45:33;9.52;;;2.97;;
34832;SDS011;55941;50.800;4.342;2022-09-29T17:48:00;14.77;;;2.80;;
34832;SDS011;55941;50.800;4.342;2022-09-29T17:50:34;11.38;;;2.88;;
34832;SDS011;55941;50.800;4.342;2022-09-29T17:53:05;11.68;;;2.70;;
34832;SDS011;55941;50.800;4.342;2022-09-29T17:55:32;11.85;;;3.08;;
34832;SDS011;55941;50.800;4.342;2022-09-29T17:57:59;9.40;;;3.50;;
34832;SDS011;55941;50.800;4.342;2022-09-29T18:00:27;17.13;;;3.90;;
34832;SDS011;55941;50.800;4.342;2022-09-29T18:03:04;21.65;;;6.18;;
34832;SDS011;55941;50.800;4.342;2022-09-29T18:05:30;19.45;;;11.18;;
34832;SDS011;55941;50.800;4.342;2022-09-29T18:07:57;22.73;;;9.85;;
34832;SDS011;55941;50.800;4.342;2022-09-29T18:10:24;23.80;;;8.10;;
34832;SDS011;55941;50.800;4.342;2022-09-29T18:12:57;23.90;;;8.73;;
34832;SDS011;55941;50.800;4.342;2022-09-29T18:15:23;14.93;;;4.60;;
34832;SDS011;55941;50.800;4.342;2022-09-29T18:17:53;14.75;;;4.47;;
34832;SDS011;55941;50.800;4.342;2022-09-29T18:20:20;14.18;;;4.38;;
34832;SDS011;55941;50.800;4.342;2022-09-29T18:22:47;14.40;;;3.08;;
34832;SDS011;55941;50.800;4.342;2022-09-29T18:25:13;8.13;;;3.03;;
34832;SDS011;55941;50.800;4.342;2022-09-29T18:27:42;8.50;;;3.08;;
34832;SDS011;55941;50.800;4.342;2022-09-29T18:30:13;9.85;;;3.25;;
34832;SDS011;55941;50.800;4.342;2022-09-29T18:32:45;6.95;;;2.80;;
34832;SDS011;55941;50.800;4.342;2022-09-29T18:35:14;7.15;;;3.25;;
34832;SDS011;55941;50.800;4.342;2022-09-29T18:37:41;5.88;;;2.95;;
34832;SDS011;55941;50.800;4.342;2022-09-29T18:40:07;4.85;;;2.80;;
34832;SDS011;55941;50.800;4.342;2022-09-29T18:42:38;8.40;;;3.05;;